createdAt,value
2018-08-04T00:00:38.806Z,24.30
2018-08-04T00:03:09.328Z,24.20
2018-08-04T00:05:38.399Z,24.20
2018-08-04T00:08:07.606Z,24.10
2018-08-04T00:10:36.780Z,24.10
2018-08-04T00:15:34.552Z,24.10
2018-08-04T00:18:03.758Z,24.00
2018-08-04T00:20:32.796Z,24.00
2018-08-04T00:23:01.872Z,23.90
2018-08-04T00:25:30.958Z,24.00
2018-08-04T00:28:00.054Z,23.90
2018-08-04T00:30:29.774Z,23.90
2018-08-04T00:32:58.974Z,23.80
2018-08-04T00:35:28.054Z,23.90
2018-08-04T00:37:57.164Z,23.90
2018-08-04T00:40:26.242Z,23.90
2018-08-04T00:42:55.413Z,23.80
2018-08-04T00:45:24.457Z,23.80
2018-08-04T00:47:53.651Z,23.80
2018-08-04T00:50:22.747Z,23.80
2018-08-04T00:52:51.877Z,23.80
2018-08-04T00:55:20.987Z,23.80
2018-08-04T00:57:50.014Z,23.80
2018-08-04T01:00:19.027Z,23.70
2018-08-04T01:02:48.243Z,23.70
2018-08-04T01:05:17.421Z,23.70
2018-08-04T01:07:46.491Z,23.70
2018-08-04T01:10:15.489Z,23.60
2018-08-04T01:12:44.625Z,23.60
2018-08-04T01:15:13.869Z,23.60
2018-08-04T01:17:42.901Z,23.60
2018-08-04T01:20:12.019Z,23.50
2018-08-04T01:22:41.085Z,23.50
2018-08-04T01:25:10.194Z,23.50
2018-08-04T01:27:39.302Z,23.50
2018-08-04T01:30:08.413Z,23.40
2018-08-04T01:32:37.472Z,23.40
2018-08-04T01:35:07.285Z,23.30
2018-08-04T01:37:36.375Z,23.30
2018-08-04T01:40:06.223Z,23.30
2018-08-04T01:42:35.298Z,23.30
2018-08-04T01:45:04.609Z,23.30
2018-08-04T01:47:33.681Z,23.30
2018-08-04T01:50:02.793Z,23.20
2018-08-04T01:52:31.909Z,23.20
2018-08-04T01:55:00.943Z,23.20
2018-08-04T01:57:29.961Z,23.20
2018-08-04T01:59:59.021Z,23.10
2018-08-04T02:02:28.101Z,23.10
2018-08-04T02:04:57.177Z,23.10
2018-08-04T02:07:26.270Z,23.10
2018-08-04T02:09:55.383Z,23.10
2018-08-04T02:12:24.439Z,23.10
2018-08-04T02:14:53.581Z,23.00
2018-08-04T02:17:22.639Z,23.00
2018-08-04T02:19:51.817Z,23.00
2018-08-04T02:22:21.032Z,23.00
2018-08-04T02:24:50.060Z,22.90
2018-08-04T02:27:19.114Z,22.90
2018-08-04T02:29:48.317Z,22.90
2018-08-04T02:32:17.434Z,22.90
2018-08-04T02:34:46.781Z,23.00
2018-08-04T02:37:15.822Z,22.90
2018-08-04T02:39:44.888Z,23.00
2018-08-04T02:42:13.938Z,23.00
2018-08-04T02:44:43.046Z,23.00
2018-08-04T02:47:12.072Z,23.00
2018-08-04T02:49:41.352Z,23.00
2018-08-04T02:52:10.402Z,23.00
2018-08-04T02:54:39.498Z,23.00
2018-08-04T02:57:08.558Z,23.10
2018-08-04T02:59:37.774Z,23.00
2018-08-04T03:02:06.921Z,23.00
2018-08-04T03:07:05.758Z,23.00
2018-08-04T03:09:34.756Z,23.00
2018-08-04T03:12:03.884Z,23.00
2018-08-04T03:14:33.039Z,23.10
2018-08-04T03:17:02.060Z,23.00
2018-08-04T03:19:31.132Z,23.00
2018-08-04T03:24:28.855Z,22.90
2018-08-04T03:26:57.938Z,22.90
2018-08-04T03:29:27.010Z,22.80
2018-08-04T03:31:56.170Z,22.80
2018-08-04T03:34:25.228Z,22.70
2018-08-04T03:36:54.410Z,22.70
2018-08-04T03:39:24.429Z,22.70
2018-08-04T03:41:53.527Z,22.60
2018-08-04T03:44:22.633Z,22.60
2018-08-04T03:46:51.797Z,22.60
2018-08-04T03:49:20.911Z,22.50
2018-08-04T03:51:50.093Z,22.50
2018-08-04T03:54:19.210Z,22.50
2018-08-04T03:56:48.305Z,22.50
2018-08-04T03:59:17.413Z,22.40
2018-08-04T04:01:47.005Z,22.40
2018-08-04T04:04:16.441Z,22.40
2018-08-04T04:06:45.553Z,22.40
2018-08-04T04:09:14.619Z,22.40
2018-08-04T04:11:43.711Z,22.30
2018-08-04T04:14:12.818Z,22.30
2018-08-04T04:16:41.805Z,22.30
2018-08-04T04:19:10.815Z,22.30
2018-08-04T04:21:39.846Z,22.20
2018-08-04T04:24:09.283Z,22.20
2018-08-04T04:26:38.465Z,22.20
2018-08-04T04:29:07.594Z,22.20
2018-08-04T04:31:36.703Z,22.20
2018-08-04T04:34:05.981Z,22.20
2018-08-04T04:36:35.145Z,22.10
2018-08-04T04:39:05.936Z,22.20
2018-08-04T04:41:35.033Z,22.20
2018-08-04T04:44:04.136Z,22.10
2018-08-04T04:46:38.317Z,22.10
2018-08-04T04:49:09.853Z,22.10
2018-08-04T04:51:39.417Z,22.10
2018-08-04T04:54:08.477Z,22.20
2018-08-04T04:56:37.572Z,22.10
2018-08-04T04:59:06.595Z,22.10
2018-08-04T05:01:35.806Z,22.10
2018-08-04T05:04:05.147Z,22.10
2018-08-04T05:06:34.293Z,22.10
2018-08-04T05:09:06.151Z,22.00
2018-08-04T05:11:35.716Z,22.10
2018-08-04T05:14:04.825Z,22.10
2018-08-04T05:16:34.953Z,22.20
2018-08-04T05:19:04.125Z,22.10
2018-08-04T05:21:33.232Z,22.10
2018-08-04T05:24:02.181Z,22.10
2018-08-04T05:26:31.265Z,22.10
2018-08-04T05:29:00.385Z,22.10
2018-08-04T05:31:29.453Z,22.10
2018-08-04T05:33:58.493Z,22.10
2018-08-04T05:36:27.645Z,22.10
2018-08-04T05:38:56.699Z,22.10
2018-08-04T05:41:25.771Z,22.10
2018-08-04T05:43:54.980Z,22.10
2018-08-04T05:46:24.913Z,22.10
2018-08-04T05:48:55.935Z,22.10
2018-08-04T05:51:25.058Z,22.20
2018-08-04T05:53:54.218Z,22.30
2018-08-04T05:56:23.417Z,22.30
2018-08-04T05:58:52.933Z,22.40
2018-08-04T06:01:22.117Z,22.40
2018-08-04T06:03:51.227Z,22.40
2018-08-04T06:06:20.347Z,22.40
2018-08-04T06:08:49.473Z,22.60
2018-08-04T06:11:18.544Z,22.60
2018-08-04T06:13:47.595Z,22.60
2018-08-04T06:16:16.769Z,22.60
2018-08-04T06:18:45.798Z,22.60
2018-08-04T06:21:14.945Z,22.70
2018-08-04T06:23:44.092Z,22.70
2018-08-04T06:26:13.178Z,22.70
2018-08-04T06:28:42.386Z,22.60
2018-08-04T06:31:11.482Z,22.50
2018-08-04T06:33:40.557Z,22.60
2018-08-04T06:36:09.708Z,22.50
2018-08-04T06:38:38.756Z,22.60
2018-08-04T06:41:07.908Z,22.70
2018-08-04T06:43:37.073Z,22.70
2018-08-04T06:46:06.493Z,22.70
2018-08-04T06:48:35.592Z,22.80
2018-08-04T06:51:04.684Z,22.80
2018-08-04T06:53:33.776Z,22.90
2018-08-04T06:56:02.904Z,23.00
2018-08-04T06:58:31.942Z,23.10
2018-08-04T07:01:01.074Z,23.10
2018-08-04T07:03:30.170Z,23.10
2018-08-04T07:05:59.284Z,23.20
2018-08-04T07:08:28.346Z,23.20
2018-08-04T07:10:57.412Z,23.20
2018-08-04T07:13:26.520Z,23.20
2018-08-04T07:15:55.628Z,23.40
2018-08-04T07:18:24.729Z,23.40
2018-08-04T07:23:22.698Z,23.50
2018-08-04T07:25:51.792Z,23.50
2018-08-04T07:28:20.948Z,23.50
2018-08-04T07:30:50.030Z,23.50
2018-08-04T07:33:20.007Z,23.60
2018-08-04T07:35:49.168Z,23.70
2018-08-04T07:38:18.280Z,23.70
2018-08-04T07:40:47.364Z,23.80
2018-08-04T07:45:45.084Z,24.00
2018-08-04T07:48:14.227Z,24.10
2018-08-04T07:50:43.247Z,24.20
2018-08-04T07:55:41.012Z,24.30
2018-08-04T07:58:10.897Z,24.40
2018-08-04T08:00:39.971Z,24.50
2018-08-04T08:03:09.134Z,24.60
2018-08-04T08:05:43.981Z,24.70
2018-08-04T08:08:13.118Z,24.80
2018-08-04T08:10:42.239Z,24.80
2018-08-04T08:13:11.249Z,24.90
2018-08-04T08:15:40.337Z,24.90
2018-08-04T08:18:09.447Z,25.00
2018-08-04T08:20:38.551Z,25.00
2018-08-04T08:23:07.722Z,25.00
2018-08-04T08:25:36.822Z,25.00
2018-08-04T08:28:06.090Z,25.00
2018-08-04T08:30:35.157Z,25.00
2018-08-04T08:33:04.247Z,25.10
2018-08-04T08:35:33.411Z,25.20
2018-08-04T08:40:31.223Z,25.30
2018-08-04T08:43:00.328Z,25.30
2018-08-04T08:45:29.585Z,25.40
2018-08-04T08:47:58.657Z,25.50
2018-08-04T08:50:27.745Z,25.50
2018-08-04T08:52:56.810Z,25.60
2018-08-04T08:55:25.978Z,25.70
2018-08-04T08:57:55.073Z,25.70
2018-08-04T09:00:24.065Z,25.70
2018-08-04T09:02:53.118Z,25.80
2018-08-04T09:05:22.225Z,25.80
2018-08-04T09:07:51.294Z,25.90
2018-08-04T09:10:20.369Z,25.90
2018-08-04T09:12:49.504Z,25.90
2018-08-04T09:15:18.573Z,26.00
2018-08-04T09:17:47.759Z,26.10
2018-08-04T09:20:16.885Z,26.20
2018-08-04T09:22:45.937Z,26.30
2018-08-04T09:25:15.046Z,26.40
2018-08-04T09:27:44.165Z,26.50
2018-08-04T09:30:14.122Z,26.60
2018-08-04T09:35:14.530Z,26.80
2018-08-04T09:37:43.907Z,26.90
2018-08-04T09:40:16.604Z,27.00
2018-08-04T09:42:46.104Z,27.00
2018-08-04T09:45:15.179Z,27.00
2018-08-04T09:47:44.330Z,27.00
2018-08-04T09:50:13.666Z,27.10
2018-08-04T09:52:43.085Z,27.20
2018-08-04T09:55:12.598Z,27.30
2018-08-04T10:00:17.624Z,27.40
2018-08-04T10:02:47.045Z,27.50
2018-08-04T10:05:16.197Z,27.60
2018-08-04T10:07:48.104Z,27.60
2018-08-04T10:10:17.212Z,27.70
2018-08-04T10:12:46.296Z,27.80
2018-08-04T10:15:15.441Z,27.80
2018-08-04T10:17:44.396Z,27.70
2018-08-04T10:20:13.540Z,27.80
2018-08-04T10:22:42.527Z,27.80
2018-08-04T10:25:11.540Z,27.80
2018-08-04T10:27:40.644Z,27.80
2018-08-04T10:30:11.398Z,27.90
2018-08-04T10:32:40.593Z,28.00
2018-08-04T10:35:09.787Z,28.00
2018-08-04T10:37:39.010Z,28.10
2018-08-04T10:40:08.301Z,28.10
2018-08-04T10:42:37.391Z,28.20
2018-08-04T10:45:06.856Z,28.40
2018-08-04T10:47:35.936Z,28.40
2018-08-04T10:50:05.908Z,28.60
2018-08-04T10:52:34.976Z,28.60
2018-08-04T10:55:04.214Z,28.70
2018-08-04T10:57:33.275Z,28.80
2018-08-04T11:00:02.440Z,28.80
2018-08-04T11:02:31.484Z,28.80
2018-08-04T11:05:00.534Z,28.90
2018-08-04T11:07:31.380Z,28.90
2018-08-04T11:10:00.560Z,29.00
2018-08-04T11:12:29.747Z,29.10
2018-08-04T11:14:58.870Z,29.10
2018-08-04T11:17:27.910Z,29.30
2018-08-04T11:19:57.120Z,29.40
2018-08-04T11:22:26.212Z,29.50
2018-08-04T11:24:55.256Z,29.60
2018-08-04T11:27:24.386Z,29.60
2018-08-04T11:29:53.551Z,29.60
2018-08-04T11:32:22.770Z,29.60
2018-08-04T11:34:51.850Z,29.60
2018-08-04T11:39:49.651Z,29.80
2018-08-04T11:42:18.687Z,29.90
2018-08-04T11:44:47.729Z,29.90
2018-08-04T11:47:16.689Z,30.00
2018-08-04T11:49:45.749Z,30.10
2018-08-04T11:52:14.733Z,30.10
2018-08-04T11:54:43.817Z,30.10
2018-08-04T11:57:12.878Z,30.20
2018-08-04T11:59:41.912Z,30.30
2018-08-04T12:02:10.907Z,30.30
2018-08-04T12:04:39.971Z,30.40
2018-08-04T12:07:09.005Z,30.50
2018-08-04T12:09:38.091Z,30.40
2018-08-04T12:12:07.207Z,30.50
2018-08-04T12:14:36.244Z,30.50
2018-08-04T12:17:05.380Z,30.50
2018-08-04T12:19:34.393Z,30.60
2018-08-04T12:22:03.446Z,30.70
2018-08-04T12:24:32.639Z,30.70
2018-08-04T12:29:30.507Z,30.70
2018-08-04T12:31:59.542Z,30.70
2018-08-04T12:34:28.638Z,30.70
2018-08-04T12:36:57.797Z,30.60
2018-08-04T12:39:27.497Z,30.70
2018-08-04T12:41:56.552Z,30.80
2018-08-04T12:44:25.667Z,30.90
2018-08-04T12:46:54.732Z,30.90
2018-08-04T12:49:24.469Z,30.90
2018-08-04T12:51:53.564Z,30.90
2018-08-04T12:54:22.637Z,31.00
2018-08-04T12:56:51.736Z,31.00
2018-08-04T12:59:20.768Z,31.10
2018-08-04T13:01:49.796Z,31.10
2018-08-04T13:04:18.773Z,31.10
2018-08-04T13:06:47.772Z,31.10
2018-08-04T13:09:16.812Z,31.20
2018-08-04T13:11:45.909Z,31.20
2018-08-04T13:14:14.964Z,31.30
2018-08-04T13:16:44.073Z,31.30
2018-08-04T13:19:13.107Z,31.40
2018-08-04T13:21:42.144Z,31.40
2018-08-04T13:24:11.270Z,31.40
2018-08-04T13:26:40.340Z,31.40
2018-08-04T13:29:09.316Z,31.40
2018-08-04T13:31:38.365Z,31.50
2018-08-04T13:34:07.468Z,31.60
2018-08-04T13:36:36.576Z,31.60
2018-08-04T13:39:08.143Z,31.60
2018-08-04T13:41:37.600Z,31.70
2018-08-04T13:44:06.743Z,31.80
2018-08-04T13:46:35.867Z,31.80
2018-08-04T13:49:04.918Z,31.80
2018-08-04T13:51:34.041Z,32.00
2018-08-04T13:54:03.060Z,31.90
2018-08-04T13:56:32.064Z,31.90
2018-08-04T13:59:01.056Z,31.90
2018-08-04T14:01:30.198Z,32.00
2018-08-04T14:03:59.250Z,32.00
2018-08-04T14:06:29.004Z,32.10
2018-08-04T14:08:58.065Z,32.20
2018-08-04T14:11:27.172Z,32.30
2018-08-04T14:13:56.442Z,32.40
2018-08-04T14:16:25.470Z,32.40
2018-08-04T14:18:54.560Z,32.50
2018-08-04T14:21:23.644Z,32.60
2018-08-04T14:23:52.792Z,32.60
2018-08-04T14:26:21.867Z,32.60
2018-08-04T14:28:51.122Z,32.70
2018-08-04T14:31:20.165Z,32.70
2018-08-04T14:33:49.228Z,32.80
2018-08-04T14:36:18.309Z,33.00
2018-08-04T14:41:16.084Z,32.90
2018-08-04T14:43:45.096Z,33.00
2018-08-04T14:46:14.154Z,33.00
2018-08-04T14:48:43.178Z,33.20
2018-08-04T14:51:12.285Z,33.20
2018-08-04T14:53:41.361Z,33.20
2018-08-04T14:56:10.326Z,33.30
2018-08-04T14:58:39.348Z,33.30
2018-08-04T15:01:08.418Z,33.30
2018-08-04T15:03:37.478Z,33.40
2018-08-04T15:06:06.552Z,33.40
2018-08-04T15:08:35.617Z,33.30
2018-08-04T15:11:04.629Z,33.20
2018-08-04T15:13:33.841Z,33.10
2018-08-04T15:16:02.885Z,33.10
2018-08-04T15:18:31.892Z,33.10
2018-08-04T15:21:01.056Z,33.00
2018-08-04T15:23:30.125Z,33.00
2018-08-04T15:25:59.257Z,33.00
2018-08-04T15:28:28.291Z,33.00
2018-08-04T15:30:57.317Z,33.00
2018-08-04T15:33:26.387Z,33.00
2018-08-04T15:35:55.591Z,32.90
2018-08-04T15:38:24.873Z,32.90
2018-08-04T15:40:53.874Z,33.00
2018-08-04T15:45:51.548Z,32.90
2018-08-04T15:48:20.766Z,33.00
2018-08-04T15:50:49.832Z,33.00
2018-08-04T15:53:18.863Z,33.00
2018-08-04T15:55:47.952Z,33.00
2018-08-04T15:58:17.040Z,33.10
2018-08-04T16:00:46.349Z,33.00
2018-08-04T16:03:15.473Z,33.00
2018-08-04T16:05:44.539Z,33.00
2018-08-04T16:08:13.633Z,33.00
2018-08-04T16:10:42.784Z,32.80
2018-08-04T16:13:11.853Z,32.40
2018-08-04T16:15:40.935Z,32.40
2018-08-04T16:18:10.041Z,32.10
2018-08-04T16:20:39.114Z,31.90
2018-08-04T16:23:08.148Z,31.70
2018-08-04T16:25:37.164Z,31.40
2018-08-04T16:30:34.907Z,31.00
2018-08-04T16:33:04.026Z,31.00
2018-08-04T16:35:33.152Z,31.00
2018-08-04T16:38:02.180Z,31.00
2018-08-04T16:40:31.252Z,31.00
2018-08-04T16:43:00.464Z,30.90
2018-08-04T16:45:29.588Z,30.80
2018-08-04T16:47:58.628Z,30.70
2018-08-04T16:50:27.674Z,30.60
2018-08-04T16:52:56.764Z,30.40
2018-08-04T16:55:25.808Z,30.40
2018-08-04T17:00:23.432Z,30.20
2018-08-04T17:02:52.436Z,30.10
2018-08-04T17:05:21.506Z,30.00
2018-08-04T17:07:51.010Z,29.90
2018-08-04T17:10:20.089Z,29.70
2018-08-04T17:12:49.247Z,29.70
2018-08-04T17:15:18.299Z,29.60
2018-08-04T17:17:47.372Z,29.60
2018-08-04T17:22:45.114Z,29.60
2018-08-04T17:25:14.160Z,29.50
2018-08-04T17:27:43.232Z,29.50
2018-08-04T17:30:11.881Z,29.30
2018-08-04T17:32:41.000Z,29.30
2018-08-04T17:35:10.004Z,29.30
2018-08-04T17:37:39.074Z,29.30
2018-08-04T17:40:09.134Z,29.00
2018-08-04T17:42:38.164Z,28.70
2018-08-04T17:45:07.272Z,28.70
2018-08-04T17:47:36.358Z,28.40
2018-08-04T17:50:05.451Z,28.20
2018-08-04T17:52:34.747Z,28.30
2018-08-04T17:55:04.149Z,28.20
2018-08-04T17:57:33.223Z,27.90
2018-08-04T18:00:02.390Z,27.80
2018-08-04T18:02:31.429Z,27.60
2018-08-04T18:05:00.898Z,27.60
2018-08-04T18:07:30.905Z,27.60
2018-08-04T18:09:59.925Z,27.70
2018-08-04T18:12:28.979Z,27.50
2018-08-04T18:14:58.022Z,27.40
2018-08-04T18:17:27.539Z,27.30
2018-08-04T18:19:56.632Z,27.30
2018-08-04T18:22:25.774Z,27.10
2018-08-04T18:24:54.878Z,27.00
2018-08-04T18:27:23.862Z,26.70
2018-08-04T18:29:52.984Z,26.60
2018-08-04T18:32:22.061Z,26.60
2018-08-04T18:34:51.109Z,26.60
2018-08-04T18:37:20.189Z,26.50
2018-08-04T18:39:49.318Z,26.40
2018-08-04T18:42:18.491Z,26.30
2018-08-04T18:44:47.653Z,26.20
2018-08-04T18:47:16.707Z,26.30
2018-08-04T18:49:45.894Z,26.10
2018-08-04T18:52:15.373Z,26.00
2018-08-04T18:54:44.402Z,26.00
2018-08-04T18:57:13.489Z,25.80
2018-08-04T18:59:42.602Z,25.70
2018-08-04T19:02:11.629Z,25.60
2018-08-04T19:04:40.953Z,25.70
2018-08-04T19:07:09.960Z,25.60
2018-08-04T19:09:39.026Z,25.50
2018-08-04T19:12:08.081Z,25.40
2018-08-04T19:14:37.096Z,25.30
2018-08-04T19:17:06.215Z,25.30
2018-08-04T19:19:35.250Z,25.20
2018-08-04T19:22:04.433Z,25.10
2018-08-04T19:24:33.564Z,25.00
2018-08-04T19:27:02.722Z,24.90
2018-08-04T19:29:32.385Z,24.80
2018-08-04T19:32:02.027Z,24.80
2018-08-04T19:34:31.212Z,24.80
2018-08-04T19:37:00.301Z,24.60
2018-08-04T19:39:29.335Z,24.50
2018-08-04T19:41:58.453Z,24.50
2018-08-04T19:44:27.625Z,24.40
2018-08-04T19:46:57.342Z,24.40
2018-08-04T19:49:26.326Z,24.30
2018-08-04T19:51:55.464Z,24.30
2018-08-04T19:54:24.625Z,24.10
2018-08-04T19:57:57.361Z,24.10
2018-08-04T20:00:26.444Z,24.10
2018-08-04T20:02:55.516Z,23.90
2018-08-04T20:05:25.009Z,23.90
2018-08-04T20:07:55.047Z,23.80
2018-08-04T20:10:24.041Z,23.70
2018-08-04T20:12:53.031Z,23.70
2018-08-04T20:15:22.103Z,23.70
2018-08-04T20:17:51.205Z,23.70
2018-08-04T20:20:20.292Z,23.60
2018-08-04T20:22:49.458Z,23.60
2018-08-04T20:25:18.482Z,23.60
2018-08-04T20:27:47.585Z,23.50
2018-08-04T20:30:16.698Z,23.50
2018-08-04T20:32:45.888Z,23.50
2018-08-04T20:35:14.957Z,23.50
2018-08-04T20:37:44.170Z,23.30
2018-08-04T20:40:13.276Z,23.30
2018-08-04T20:42:42.378Z,23.20
2018-08-04T20:45:11.535Z,23.20
2018-08-04T20:47:40.568Z,23.20
2018-08-04T20:50:09.631Z,23.20
2018-08-04T20:52:38.677Z,23.00
2018-08-04T20:55:07.762Z,23.10
2018-08-04T20:57:36.860Z,22.90
2018-08-04T21:00:06.078Z,22.90
2018-08-04T21:02:35.129Z,22.80
2018-08-04T21:05:04.191Z,22.70
2018-08-04T21:07:33.246Z,22.60
2018-08-04T21:10:02.306Z,22.60
2018-08-04T21:12:31.425Z,22.60
2018-08-04T21:15:00.512Z,22.50
2018-08-04T21:17:29.591Z,22.40
2018-08-04T21:19:58.727Z,22.30
2018-08-04T21:22:27.946Z,22.30
2018-08-04T21:24:57.005Z,22.30
2018-08-04T21:27:26.877Z,22.30
2018-08-04T21:29:55.989Z,22.30
2018-08-04T21:32:24.994Z,22.30
2018-08-04T21:34:54.103Z,22.30
2018-08-04T21:37:23.153Z,22.20
2018-08-04T21:39:52.167Z,22.20
2018-08-04T21:42:21.169Z,22.10
2018-08-04T21:44:50.317Z,22.10
2018-08-04T21:47:19.297Z,22.00
2018-08-04T21:49:48.370Z,22.00
2018-08-04T21:52:17.563Z,21.90
2018-08-04T21:54:46.737Z,21.90
2018-08-04T21:57:15.768Z,21.80
2018-08-04T21:59:45.887Z,21.70
2018-08-04T22:02:14.897Z,21.70
2018-08-04T22:04:44.057Z,21.60
2018-08-04T22:07:50.479Z,21.70
2018-08-04T22:10:19.526Z,21.60
2018-08-04T22:12:48.618Z,21.60
2018-08-04T22:15:17.745Z,21.50
2018-08-04T22:17:46.800Z,21.40
2018-08-04T22:22:47.945Z,21.30
2018-08-04T22:25:18.276Z,21.30
2018-08-04T22:27:47.305Z,21.20
2018-08-04T22:30:18.430Z,21.20
2018-08-04T22:32:47.810Z,21.10
2018-08-04T22:35:16.934Z,21.00
2018-08-04T22:37:46.069Z,20.90
2018-08-04T22:40:15.900Z,20.90
2018-08-04T22:42:45.339Z,20.80
2018-08-04T22:46:23.914Z,20.80
2018-08-04T22:48:53.952Z,20.70
2018-08-04T22:51:29.949Z,20.70
2018-08-04T22:53:58.989Z,20.60
2018-08-04T22:56:28.134Z,20.50
2018-08-04T22:58:57.216Z,20.50
2018-08-04T23:01:26.326Z,20.40
2018-08-04T23:03:55.433Z,20.40
2018-08-04T23:06:24.510Z,20.30
2018-08-04T23:08:53.612Z,20.30
2018-08-04T23:11:22.699Z,20.20
2018-08-04T23:13:51.865Z,20.20
2018-08-04T23:18:49.570Z,20.10
2018-08-04T23:21:18.608Z,20.10
2018-08-04T23:23:47.676Z,20.10
2018-08-04T23:26:16.828Z,20.00
2018-08-04T23:28:45.886Z,20.00
2018-08-04T23:31:15.020Z,20.00
2018-08-04T23:33:44.034Z,19.90
2018-08-04T23:36:13.154Z,19.90
2018-08-04T23:38:42.221Z,19.90
2018-08-04T23:43:39.942Z,20.00
2018-08-04T23:46:09.038Z,20.00
2018-08-04T23:48:38.147Z,20.10
2018-08-04T23:51:07.671Z,20.00
2018-08-04T23:53:36.748Z,20.00
2018-08-04T23:56:05.870Z,19.80
2018-08-04T23:58:35.116Z,19.90
